sensor_id;sensor_type;location;lat;lon;timestamp;P1;durP1;ratioP1;P2;durP2;ratioP2
18732;SDS011;9495;51.210;2.934;2023-04-19T00:02:25;34.93;;;26.70;;
18732;SDS011;9495;51.210;2.934;2023-04-19T00:04:54;35.13;;;25.97;;
18732;SDS011;9495;51.210;2.934;2023-04-19T00:07:23;34.47;;;27.50;;
18732;SDS011;9495;51.210;2.934;2023-04-19T00:09:52;32.27;;;26.33;;
18732;SDS011;9495;51.210;2.934;2023-04-19T00:12:20;32.53;;;26.63;;
18732;SDS011;9495;51.210;2.934;2023-04-19T00:14:50;34.33;;;26.30;;
18732;SDS011;9495;51.210;2.934;2023-04-19T00:17:18;35.10;;;26.90;;
18732;SDS011;9495;51.210;2.934;2023-04-19T00:19:48;33.83;;;26.27;;
18732;SDS011;9495;51.210;2.934;2023-04-19T00:22:17;35.10;;;26.97;;
18732;SDS011;9495;51.210;2.934;2023-04-19T00:24:46;35.27;;;27.57;;
18732;SDS011;9495;51.210;2.934;2023-04-19T00:27:14;38.10;;;27.80;;
18732;SDS011;9495;51.210;2.934;2023-04-19T00:29:43;33.73;;;27.07;;
18732;SDS011;9495;51.210;2.934;2023-04-19T00:32:14;34.17;;;27.57;;
18732;SDS011;9495;51.210;2.934;2023-04-19T00:34:42;36.40;;;27.97;;
18732;SDS011;9495;51.210;2.934;2023-04-19T00:37:11;34.07;;;27.70;;
18732;SDS011;9495;51.210;2.934;2023-04-19T00:39:40;38.83;;;28.37;;
18732;SDS011;9495;51.210;2.934;2023-04-19T00:42:08;33.93;;;28.20;;
18732;SDS011;9495;51.210;2.934;2023-04-19T00:44:37;37.03;;;28.57;;
18732;SDS011;9495;51.210;2.934;2023-04-19T00:47:05;36.57;;;27.80;;
18732;SDS011;9495;51.210;2.934;2023-04-19T00:49:36;36.03;;;28.27;;
18732;SDS011;9495;51.210;2.934;2023-04-19T00:52:04;38.47;;;27.40;;
18732;SDS011;9495;51.210;2.934;2023-04-19T00:54:34;38.83;;;28.37;;
18732;SDS011;9495;51.210;2.934;2023-04-19T00:57:03;35.27;;;28.30;;
18732;SDS011;9495;51.210;2.934;2023-04-19T00:59:31;34.33;;;26.57;;
18732;SDS011;9495;51.210;2.934;2023-04-19T01:02:01;33.90;;;27.23;;
18732;SDS011;9495;51.210;2.934;2023-04-19T01:04:29;37.50;;;28.70;;
18732;SDS011;9495;51.210;2.934;2023-04-19T01:06:59;34.33;;;26.30;;
18732;SDS011;9495;51.210;2.934;2023-04-19T01:09:29;34.13;;;27.00;;
18732;SDS011;9495;51.210;2.934;2023-04-19T01:11:58;39.17;;;27.93;;
18732;SDS011;9495;51.210;2.934;2023-04-19T01:14:27;34.13;;;26.20;;
18732;SDS011;9495;51.210;2.934;2023-04-19T01:16:56;32.53;;;26.63;;
18732;SDS011;9495;51.210;2.934;2023-04-19T01:19:24;30.83;;;25.10;;
18732;SDS011;9495;51.210;2.934;2023-04-19T01:21:53;36.30;;;26.93;;
18732;SDS011;9495;51.210;2.934;2023-04-19T01:24:25;35.87;;;27.47;;
18732;SDS011;9495;51.210;2.934;2023-04-19T01:26:53;34.20;;;26.90;;
18732;SDS011;9495;51.210;2.934;2023-04-19T01:29:21;33.33;;;26.43;;
18732;SDS011;9495;51.210;2.934;2023-04-19T01:31:50;35.27;;;26.90;;
18732;SDS011;9495;51.210;2.934;2023-04-19T01:34:19;33.40;;;26.63;;
18732;SDS011;9495;51.210;2.934;2023-04-19T01:36:48;32.50;;;25.00;;
18732;SDS011;9495;51.210;2.934;2023-04-19T01:39:17;33.27;;;26.83;;
18732;SDS011;9495;51.210;2.934;2023-04-19T01:41:47;35.03;;;28.00;;
18732;SDS011;9495;51.210;2.934;2023-04-19T01:44:15;34.40;;;28.03;;
18732;SDS011;9495;51.210;2.934;2023-04-19T01:46:43;34.90;;;27.03;;
18732;SDS011;9495;51.210;2.934;2023-04-19T01:49:12;32.53;;;27.67;;
18732;SDS011;9495;51.210;2.934;2023-04-19T01:51:41;36.43;;;27.77;;
18732;SDS011;9495;51.210;2.934;2023-04-19T01:54:09;33.37;;;27.97;;
18732;SDS011;9495;51.210;2.934;2023-04-19T01:56:38;34.67;;;28.47;;
18732;SDS011;9495;51.210;2.934;2023-04-19T01:59:08;33.63;;;27.83;;
18732;SDS011;9495;51.210;2.934;2023-04-19T02:01:36;36.70;;;28.57;;
18732;SDS011;9495;51.210;2.934;2023-04-19T02:04:05;36.10;;;28.30;;
18732;SDS011;9495;51.210;2.934;2023-04-19T02:06:34;33.40;;;28.23;;
18732;SDS011;9495;51.210;2.934;2023-04-19T02:09:03;34.40;;;27.93;;
18732;SDS011;9495;51.210;2.934;2023-04-19T02:11:31;36.10;;;29.70;;
18732;SDS011;9495;51.210;2.934;2023-04-19T02:13:59;34.57;;;29.07;;
18732;SDS011;9495;51.210;2.934;2023-04-19T02:16:29;35.50;;;29.27;;
18732;SDS011;9495;51.210;2.934;2023-04-19T02:19:01;36.93;;;29.03;;
18732;SDS011;9495;51.210;2.934;2023-04-19T02:21:30;43.03;;;30.10;;
18732;SDS011;9495;51.210;2.934;2023-04-19T02:23:58;34.63;;;28.67;;
18732;SDS011;9495;51.210;2.934;2023-04-19T02:26:27;38.60;;;29.43;;
18732;SDS011;9495;51.210;2.934;2023-04-19T02:28:56;39.50;;;30.63;;
18732;SDS011;9495;51.210;2.934;2023-04-19T02:31:24;38.93;;;29.23;;
18732;SDS011;9495;51.210;2.934;2023-04-19T02:33:54;38.60;;;30.13;;
18732;SDS011;9495;51.210;2.934;2023-04-19T02:36:23;41.10;;;30.60;;
18732;SDS011;9495;51.210;2.934;2023-04-19T02:38:51;39.03;;;31.20;;
18732;SDS011;9495;51.210;2.934;2023-04-19T02:41:20;38.67;;;29.47;;
18732;SDS011;9495;51.210;2.934;2023-04-19T02:43:49;41.57;;;31.47;;
18732;SDS011;9495;51.210;2.934;2023-04-19T02:46:17;40.83;;;31.73;;
18732;SDS011;9495;51.210;2.934;2023-04-19T02:48:46;40.40;;;30.77;;
18732;SDS011;9495;51.210;2.934;2023-04-19T02:51:16;39.97;;;30.57;;
18732;SDS011;9495;51.210;2.934;2023-04-19T02:53:44;38.60;;;31.70;;
18732;SDS011;9495;51.210;2.934;2023-04-19T02:56:13;40.03;;;31.07;;
18732;SDS011;9495;51.210;2.934;2023-04-19T02:58:41;40.27;;;31.07;;
18732;SDS011;9495;51.210;2.934;2023-04-19T03:01:10;41.53;;;30.47;;
18732;SDS011;9495;51.210;2.934;2023-04-19T03:03:39;39.83;;;31.70;;
18732;SDS011;9495;51.210;2.934;2023-04-19T03:06:07;38.93;;;31.40;;
18732;SDS011;9495;51.210;2.934;2023-04-19T03:08:37;40.77;;;31.07;;
18732;SDS011;9495;51.210;2.934;2023-04-19T03:11:06;40.87;;;31.57;;
18732;SDS011;9495;51.210;2.934;2023-04-19T03:13:34;42.80;;;32.43;;
18732;SDS011;9495;51.210;2.934;2023-04-19T03:16:03;45.53;;;32.67;;
18732;SDS011;9495;51.210;2.934;2023-04-19T03:18:32;44.27;;;34.40;;
18732;SDS011;9495;51.210;2.934;2023-04-19T03:21:01;43.73;;;34.13;;
18732;SDS011;9495;51.210;2.934;2023-04-19T03:23:30;43.33;;;33.47;;
18732;SDS011;9495;51.210;2.934;2023-04-19T03:26:00;48.47;;;33.93;;
18732;SDS011;9495;51.210;2.934;2023-04-19T03:28:29;47.13;;;34.53;;
18732;SDS011;9495;51.210;2.934;2023-04-19T03:30:58;51.50;;;35.10;;
18732;SDS011;9495;51.210;2.934;2023-04-19T03:33:26;45.57;;;33.07;;
18732;SDS011;9495;51.210;2.934;2023-04-19T03:35:55;49.93;;;34.70;;
18732;SDS011;9495;51.210;2.934;2023-04-19T03:38:23;46.30;;;34.73;;
18732;SDS011;9495;51.210;2.934;2023-04-19T03:40:52;44.77;;;34.23;;
18732;SDS011;9495;51.210;2.934;2023-04-19T03:43:23;43.47;;;34.60;;
18732;SDS011;9495;51.210;2.934;2023-04-19T03:45:51;45.77;;;35.40;;
18732;SDS011;9495;51.210;2.934;2023-04-19T03:48:20;45.53;;;35.27;;
18732;SDS011;9495;51.210;2.934;2023-04-19T03:50:49;46.53;;;35.13;;
18732;SDS011;9495;51.210;2.934;2023-04-19T03:53:17;48.73;;;35.20;;
18732;SDS011;9495;51.210;2.934;2023-04-19T03:55:46;46.33;;;35.80;;
18732;SDS011;9495;51.210;2.934;2023-04-19T03:58:14;46.23;;;36.63;;
18732;SDS011;9495;51.210;2.934;2023-04-19T04:00:44;51.87;;;36.43;;
18732;SDS011;9495;51.210;2.934;2023-04-19T04:03:13;45.03;;;35.13;;
18732;SDS011;9495;51.210;2.934;2023-04-19T04:05:42;46.53;;;35.20;;
18732;SDS011;9495;51.210;2.934;2023-04-19T04:08:10;48.57;;;36.00;;
18732;SDS011;9495;51.210;2.934;2023-04-19T04:10:39;48.33;;;35.97;;
18732;SDS011;9495;51.210;2.934;2023-04-19T04:13:08;45.30;;;35.63;;
18732;SDS011;9495;51.210;2.934;2023-04-19T04:15:36;52.10;;;35.77;;
18732;SDS011;9495;51.210;2.934;2023-04-19T04:18:06;51.87;;;35.80;;
18732;SDS011;9495;51.210;2.934;2023-04-19T04:20:35;46.77;;;34.57;;
18732;SDS011;9495;51.210;2.934;2023-04-19T04:23:03;50.07;;;35.37;;
18732;SDS011;9495;51.210;2.934;2023-04-19T04:25:33;47.57;;;34.70;;
18732;SDS011;9495;51.210;2.934;2023-04-19T04:28:02;50.23;;;35.37;;
18732;SDS011;9495;51.210;2.934;2023-04-19T04:30:31;46.33;;;34.70;;
18732;SDS011;9495;51.210;2.934;2023-04-19T04:33:00;52.03;;;37.07;;
18732;SDS011;9495;51.210;2.934;2023-04-19T04:35:30;49.70;;;36.47;;
18732;SDS011;9495;51.210;2.934;2023-04-19T04:37:59;49.60;;;36.77;;
18732;SDS011;9495;51.210;2.934;2023-04-19T04:40:39;49.40;;;37.17;;
18732;SDS011;9495;51.210;2.934;2023-04-19T04:43:08;53.27;;;39.03;;
18732;SDS011;9495;51.210;2.934;2023-04-19T04:45:37;52.43;;;37.60;;
18732;SDS011;9495;51.210;2.934;2023-04-19T04:48:05;53.07;;;36.37;;
18732;SDS011;9495;51.210;2.934;2023-04-19T04:50:36;50.97;;;37.77;;
18732;SDS011;9495;51.210;2.934;2023-04-19T04:53:04;51.70;;;37.73;;
18732;SDS011;9495;51.210;2.934;2023-04-19T04:55:33;51.37;;;37.37;;
18732;SDS011;9495;51.210;2.934;2023-04-19T04:58:01;53.00;;;38.67;;
18732;SDS011;9495;51.210;2.934;2023-04-19T05:00:31;55.93;;;40.23;;
18732;SDS011;9495;51.210;2.934;2023-04-19T05:02:59;53.57;;;38.80;;
18732;SDS011;9495;51.210;2.934;2023-04-19T05:05:29;55.10;;;38.37;;
18732;SDS011;9495;51.210;2.934;2023-04-19T05:07:58;55.37;;;38.23;;
18732;SDS011;9495;51.210;2.934;2023-04-19T05:10:27;53.87;;;38.07;;
18732;SDS011;9495;51.210;2.934;2023-04-19T05:12:56;55.27;;;38.50;;
18732;SDS011;9495;51.210;2.934;2023-04-19T05:15:24;53.37;;;38.13;;
18732;SDS011;9495;51.210;2.934;2023-04-19T05:17:53;57.50;;;38.03;;
18732;SDS011;9495;51.210;2.934;2023-04-19T05:20:21;59.17;;;37.47;;
18732;SDS011;9495;51.210;2.934;2023-04-19T05:22:50;50.93;;;37.13;;
18732;SDS011;9495;51.210;2.934;2023-04-19T05:25:25;50.00;;;37.47;;
18732;SDS011;9495;51.210;2.934;2023-04-19T05:27:54;49.73;;;37.70;;
18732;SDS011;9495;51.210;2.934;2023-04-19T05:30:23;50.70;;;38.63;;
18732;SDS011;9495;51.210;2.934;2023-04-19T05:32:52;50.60;;;36.63;;
18732;SDS011;9495;51.210;2.934;2023-04-19T05:35:20;55.47;;;36.70;;
18732;SDS011;9495;51.210;2.934;2023-04-19T05:37:49;49.13;;;35.50;;
18732;SDS011;9495;51.210;2.934;2023-04-19T05:40:17;50.37;;;36.83;;
18732;SDS011;9495;51.210;2.934;2023-04-19T05:42:47;48.27;;;35.17;;
18732;SDS011;9495;51.210;2.934;2023-04-19T05:45:15;49.00;;;36.53;;
18732;SDS011;9495;51.210;2.934;2023-04-19T05:47:45;51.50;;;36.33;;
18732;SDS011;9495;51.210;2.934;2023-04-19T05:50:14;51.13;;;37.77;;
18732;SDS011;9495;51.210;2.934;2023-04-19T05:52:43;51.27;;;36.07;;
18732;SDS011;9495;51.210;2.934;2023-04-19T05:55:11;63.07;;;36.70;;
18732;SDS011;9495;51.210;2.934;2023-04-19T05:57:40;52.80;;;37.47;;
18732;SDS011;9495;51.210;2.934;2023-04-19T06:00:10;51.13;;;37.67;;
18732;SDS011;9495;51.210;2.934;2023-04-19T06:02:39;50.80;;;37.10;;
18732;SDS011;9495;51.210;2.934;2023-04-19T06:05:10;53.23;;;36.93;;
18732;SDS011;9495;51.210;2.934;2023-04-19T06:07:39;50.17;;;35.57;;
18732;SDS011;9495;51.210;2.934;2023-04-19T06:10:20;44.37;;;33.87;;
18732;SDS011;9495;51.210;2.934;2023-04-19T06:12:49;45.07;;;34.80;;
18732;SDS011;9495;51.210;2.934;2023-04-19T06:15:20;48.23;;;34.80;;
18732;SDS011;9495;51.210;2.934;2023-04-19T06:17:51;50.53;;;34.00;;
18732;SDS011;9495;51.210;2.934;2023-04-19T06:20:20;48.97;;;33.67;;
18732;SDS011;9495;51.210;2.934;2023-04-19T06:22:48;43.90;;;34.03;;
18732;SDS011;9495;51.210;2.934;2023-04-19T06:25:16;44.07;;;33.50;;
18732;SDS011;9495;51.210;2.934;2023-04-19T06:27:45;45.40;;;32.47;;
18732;SDS011;9495;51.210;2.934;2023-04-19T06:30:14;40.00;;;27.10;;
18732;SDS011;9495;51.210;2.934;2023-04-19T06:32:44;43.10;;;32.70;;
18732;SDS011;9495;51.210;2.934;2023-04-19T06:35:12;41.40;;;30.60;;
18732;SDS011;9495;51.210;2.934;2023-04-19T06:37:42;44.93;;;32.77;;
18732;SDS011;9495;51.210;2.934;2023-04-19T06:40:10;52.40;;;31.87;;
18732;SDS011;9495;51.210;2.934;2023-04-19T06:42:39;39.13;;;28.57;;
18732;SDS011;9495;51.210;2.934;2023-04-19T06:45:07;42.73;;;30.33;;
18732;SDS011;9495;51.210;2.934;2023-04-19T06:47:36;40.43;;;30.13;;
18732;SDS011;9495;51.210;2.934;2023-04-19T06:50:07;38.03;;;29.07;;
18732;SDS011;9495;51.210;2.934;2023-04-19T06:52:37;40.27;;;28.17;;
18732;SDS011;9495;51.210;2.934;2023-04-19T06:55:06;39.27;;;27.83;;
18732;SDS011;9495;51.210;2.934;2023-04-19T06:57:34;39.30;;;28.47;;
18732;SDS011;9495;51.210;2.934;2023-04-19T07:00:03;38.60;;;28.00;;
18732;SDS011;9495;51.210;2.934;2023-04-19T07:02:33;42.23;;;28.00;;
18732;SDS011;9495;51.210;2.934;2023-04-19T07:05:02;35.90;;;26.53;;
18732;SDS011;9495;51.210;2.934;2023-04-19T07:07:32;40.00;;;28.07;;
18732;SDS011;9495;51.210;2.934;2023-04-19T07:10:00;36.43;;;27.13;;
18732;SDS011;9495;51.210;2.934;2023-04-19T07:12:28;35.97;;;27.53;;
18732;SDS011;9495;51.210;2.934;2023-04-19T07:14:57;38.10;;;25.87;;
18732;SDS011;9495;51.210;2.934;2023-04-19T07:17:26;36.07;;;26.60;;
18732;SDS011;9495;51.210;2.934;2023-04-19T07:19:54;41.00;;;26.40;;
18732;SDS011;9495;51.210;2.934;2023-04-19T07:22:23;36.90;;;27.60;;
18732;SDS011;9495;51.210;2.934;2023-04-19T07:24:53;32.47;;;24.97;;
18732;SDS011;9495;51.210;2.934;2023-04-19T07:27:22;37.47;;;25.13;;
18732;SDS011;9495;51.210;2.934;2023-04-19T07:29:50;30.47;;;23.90;;
18732;SDS011;9495;51.210;2.934;2023-04-19T07:32:19;37.17;;;27.60;;
18732;SDS011;9495;51.210;2.934;2023-04-19T07:34:48;40.77;;;26.30;;
18732;SDS011;9495;51.210;2.934;2023-04-19T07:37:17;32.20;;;25.57;;
18732;SDS011;9495;51.210;2.934;2023-04-19T07:39:45;32.10;;;24.77;;
18732;SDS011;9495;51.210;2.934;2023-04-19T07:42:15;31.67;;;23.30;;
18732;SDS011;9495;51.210;2.934;2023-04-19T07:44:43;30.60;;;23.73;;
18732;SDS011;9495;51.210;2.934;2023-04-19T07:47:12;29.67;;;21.30;;
18732;SDS011;9495;51.210;2.934;2023-04-19T07:49:40;30.70;;;21.70;;
18732;SDS011;9495;51.210;2.934;2023-04-19T07:52:09;32.30;;;21.73;;
18732;SDS011;9495;51.210;2.934;2023-04-19T07:54:38;28.13;;;22.13;;
18732;SDS011;9495;51.210;2.934;2023-04-19T07:57:07;28.37;;;21.07;;
18732;SDS011;9495;51.210;2.934;2023-04-19T07:59:37;27.30;;;21.83;;
18732;SDS011;9495;51.210;2.934;2023-04-19T08:02:05;25.50;;;19.50;;
18732;SDS011;9495;51.210;2.934;2023-04-19T08:04:34;26.13;;;19.37;;
18732;SDS011;9495;51.210;2.934;2023-04-19T08:07:03;27.20;;;19.60;;
18732;SDS011;9495;51.210;2.934;2023-04-19T08:09:32;26.17;;;19.87;;
18732;SDS011;9495;51.210;2.934;2023-04-19T08:12:00;27.23;;;19.70;;
18732;SDS011;9495;51.210;2.934;2023-04-19T08:14:29;30.07;;;20.20;;
18732;SDS011;9495;51.210;2.934;2023-04-19T08:17:14;26.10;;;19.33;;
18732;SDS011;9495;51.210;2.934;2023-04-19T08:19:54;27.33;;;19.27;;
18732;SDS011;9495;51.210;2.934;2023-04-19T08:22:23;23.40;;;17.50;;
18732;SDS011;9495;51.210;2.934;2023-04-19T08:24:51;23.73;;;17.13;;
18732;SDS011;9495;51.210;2.934;2023-04-19T08:27:20;20.40;;;16.80;;
18732;SDS011;9495;51.210;2.934;2023-04-19T08:29:49;20.00;;;15.20;;
18732;SDS011;9495;51.210;2.934;2023-04-19T08:32:19;21.57;;;15.73;;
18732;SDS011;9495;51.210;2.934;2023-04-19T08:34:47;22.03;;;17.13;;
18732;SDS011;9495;51.210;2.934;2023-04-19T08:37:16;22.10;;;16.93;;
18732;SDS011;9495;51.210;2.934;2023-04-19T08:39:45;22.77;;;17.20;;
18732;SDS011;9495;51.210;2.934;2023-04-19T08:42:13;23.53;;;16.73;;
18732;SDS011;9495;51.210;2.934;2023-04-19T08:45:00;24.23;;;17.40;;
18732;SDS011;9495;51.210;2.934;2023-04-19T08:47:35;19.17;;;16.57;;
18732;SDS011;9495;51.210;2.934;2023-04-19T08:50:07;21.63;;;16.60;;
18732;SDS011;9495;51.210;2.934;2023-04-19T08:52:57;20.90;;;14.07;;
18732;SDS011;9495;51.210;2.934;2023-04-19T08:55:46;20.88;;;14.55;;
18732;SDS011;9495;51.210;2.934;2023-04-19T08:58:35;19.67;;;14.37;;
18732;SDS011;9495;51.210;2.934;2023-04-19T09:01:23;19.47;;;14.97;;
18732;SDS011;9495;51.210;2.934;2023-04-19T09:04:03;19.10;;;14.35;;
18732;SDS011;9495;51.210;2.934;2023-04-19T09:06:53;20.47;;;16.07;;
18732;SDS011;9495;51.210;2.934;2023-04-19T09:09:22;18.73;;;14.77;;
18732;SDS011;9495;51.210;2.934;2023-04-19T09:11:56;18.03;;;14.80;;
18732;SDS011;9495;51.210;2.934;2023-04-19T09:14:25;18.40;;;14.30;;
18732;SDS011;9495;51.210;2.934;2023-04-19T09:19:48;23.93;;;14.67;;
18732;SDS011;9495;51.210;2.934;2023-04-19T09:22:16;19.67;;;14.63;;
18732;SDS011;9495;51.210;2.934;2023-04-19T09:24:45;19.57;;;14.97;;
18732;SDS011;9495;51.210;2.934;2023-04-19T09:27:18;24.50;;;14.88;;
18732;SDS011;9495;51.210;2.934;2023-04-19T09:29:53;22.20;;;14.60;;
18732;SDS011;9495;51.210;2.934;2023-04-19T09:32:22;22.38;;;13.85;;
18732;SDS011;9495;51.210;2.934;2023-04-19T09:34:53;17.87;;;14.13;;
18732;SDS011;9495;51.210;2.934;2023-04-19T09:37:22;20.30;;;13.40;;
18732;SDS011;9495;51.210;2.934;2023-04-19T09:39:54;19.05;;;13.20;;
18732;SDS011;9495;51.210;2.934;2023-04-19T09:42:23;19.75;;;13.63;;
18732;SDS011;9495;51.210;2.934;2023-04-19T09:45:38;20.02;;;13.57;;
18732;SDS011;9495;51.210;2.934;2023-04-19T09:48:08;16.95;;;13.68;;
18732;SDS011;9495;51.210;2.934;2023-04-19T09:50:49;17.37;;;13.17;;
18732;SDS011;9495;51.210;2.934;2023-04-19T09:53:28;16.42;;;12.40;;
18732;SDS011;9495;51.210;2.934;2023-04-19T09:56:00;18.38;;;12.95;;
18732;SDS011;9495;51.210;2.934;2023-04-19T09:58:30;16.77;;;12.87;;
18732;SDS011;9495;51.210;2.934;2023-04-19T10:01:15;20.33;;;12.60;;
18732;SDS011;9495;51.210;2.934;2023-04-19T10:03:45;14.75;;;9.65;;
18732;SDS011;9495;51.210;2.934;2023-04-19T10:06:19;14.82;;;11.70;;
18732;SDS011;9495;51.210;2.934;2023-04-19T10:08:51;13.48;;;10.25;;
18732;SDS011;9495;51.210;2.934;2023-04-19T10:11:20;16.38;;;11.95;;
18732;SDS011;9495;51.210;2.934;2023-04-19T10:13:51;13.40;;;10.63;;
18732;SDS011;9495;51.210;2.934;2023-04-19T10:16:23;14.95;;;10.63;;
18732;SDS011;9495;51.210;2.934;2023-04-19T10:18:53;16.42;;;11.32;;
18732;SDS011;9495;51.210;2.934;2023-04-19T10:21:24;13.77;;;11.35;;
18732;SDS011;9495;51.210;2.934;2023-04-19T10:23:54;14.98;;;11.80;;
18732;SDS011;9495;51.210;2.934;2023-04-19T10:26:23;17.58;;;10.63;;
18732;SDS011;9495;51.210;2.934;2023-04-19T10:28:53;12.10;;;10.25;;
18732;SDS011;9495;51.210;2.934;2023-04-19T10:31:23;16.90;;;9.57;;
18732;SDS011;9495;51.210;2.934;2023-04-19T10:33:53;14.38;;;10.88;;
18732;SDS011;9495;51.210;2.934;2023-04-19T10:36:25;13.27;;;10.57;;
18732;SDS011;9495;51.210;2.934;2023-04-19T10:38:55;14.70;;;10.65;;
18732;SDS011;9495;51.210;2.934;2023-04-19T10:41:24;11.90;;;10.32;;
18732;SDS011;9495;51.210;2.934;2023-04-19T10:44:23;14.95;;;10.45;;
18732;SDS011;9495;51.210;2.934;2023-04-19T10:46:52;11.57;;;9.48;;
18732;SDS011;9495;51.210;2.934;2023-04-19T10:49:21;17.25;;;12.05;;
18732;SDS011;9495;51.210;2.934;2023-04-19T10:51:51;16.92;;;10.32;;
18732;SDS011;9495;51.210;2.934;2023-04-19T10:54:26;14.40;;;10.82;;
18732;SDS011;9495;51.210;2.934;2023-04-19T10:57:00;15.73;;;12.50;;
18732;SDS011;9495;51.210;2.934;2023-04-19T10:59:30;21.85;;;12.23;;
18732;SDS011;9495;51.210;2.934;2023-04-19T11:01:59;16.65;;;12.45;;
18732;SDS011;9495;51.210;2.934;2023-04-19T11:07:29;19.38;;;12.68;;
18732;SDS011;9495;51.210;2.934;2023-04-19T11:10:05;20.85;;;13.23;;
18732;SDS011;9495;51.210;2.934;2023-04-19T11:12:34;17.48;;;11.07;;
18732;SDS011;9495;51.210;2.934;2023-04-19T11:15:04;15.48;;;12.60;;
18732;SDS011;9495;51.210;2.934;2023-04-19T11:17:35;15.68;;;12.52;;
18732;SDS011;9495;51.210;2.934;2023-04-19T11:20:05;18.65;;;12.73;;
18732;SDS011;9495;51.210;2.934;2023-04-19T11:22:38;19.92;;;12.50;;
18732;SDS011;9495;51.210;2.934;2023-04-19T11:25:08;18.80;;;12.13;;
18732;SDS011;9495;51.210;2.934;2023-04-19T11:27:37;21.05;;;13.38;;
18732;SDS011;9495;51.210;2.934;2023-04-19T11:30:08;18.92;;;13.05;;
18732;SDS011;9495;51.210;2.934;2023-04-19T11:32:38;15.88;;;12.43;;
18732;SDS011;9495;51.210;2.934;2023-04-19T11:35:12;15.95;;;12.00;;
18732;SDS011;9495;51.210;2.934;2023-04-19T11:37:42;18.48;;;11.75;;
18732;SDS011;9495;51.210;2.934;2023-04-19T11:40:13;18.02;;;12.07;;
18732;SDS011;9495;51.210;2.934;2023-04-19T11:42:42;15.52;;;11.23;;
18732;SDS011;9495;51.210;2.934;2023-04-19T11:45:12;13.95;;;10.82;;
18732;SDS011;9495;51.210;2.934;2023-04-19T11:47:56;27.13;;;12.50;;
18732;SDS011;9495;51.210;2.934;2023-04-19T11:50:29;15.80;;;11.88;;
18732;SDS011;9495;51.210;2.934;2023-04-19T11:53:03;16.20;;;12.00;;
18732;SDS011;9495;51.210;2.934;2023-04-19T11:55:37;19.02;;;12.60;;
18732;SDS011;9495;51.210;2.934;2023-04-19T11:58:06;18.20;;;11.07;;
18732;SDS011;9495;51.210;2.934;2023-04-19T12:00:36;14.68;;;11.55;;
18732;SDS011;9495;51.210;2.934;2023-04-19T12:03:04;15.90;;;12.52;;
18732;SDS011;9495;51.210;2.934;2023-04-19T12:05:33;16.00;;;10.90;;
18732;SDS011;9495;51.210;2.934;2023-04-19T12:08:04;15.93;;;10.20;;
18732;SDS011;9495;51.210;2.934;2023-04-19T12:10:35;15.90;;;12.75;;
18732;SDS011;9495;51.210;2.934;2023-04-19T12:13:15;19.98;;;13.02;;
18732;SDS011;9495;51.210;2.934;2023-04-19T12:15:44;18.27;;;10.90;;
18732;SDS011;9495;51.210;2.934;2023-04-19T12:18:14;19.52;;;12.38;;
18732;SDS011;9495;51.210;2.934;2023-04-19T12:20:43;18.90;;;12.68;;
18732;SDS011;9495;51.210;2.934;2023-04-19T12:23:14;21.85;;;12.95;;
18732;SDS011;9495;51.210;2.934;2023-04-19T12:25:44;15.57;;;10.35;;
18732;SDS011;9495;51.210;2.934;2023-04-19T12:28:13;23.75;;;12.70;;
18732;SDS011;9495;51.210;2.934;2023-04-19T12:30:43;15.10;;;11.63;;
18732;SDS011;9495;51.210;2.934;2023-04-19T12:33:12;18.15;;;12.00;;
18732;SDS011;9495;51.210;2.934;2023-04-19T12:35:41;20.80;;;13.52;;
18732;SDS011;9495;51.210;2.934;2023-04-19T12:38:10;15.00;;;10.57;;
18732;SDS011;9495;51.210;2.934;2023-04-19T12:40:40;15.43;;;11.35;;
18732;SDS011;9495;51.210;2.934;2023-04-19T12:43:08;14.35;;;10.05;;
18732;SDS011;9495;51.210;2.934;2023-04-19T12:45:37;17.42;;;10.52;;
18732;SDS011;9495;51.210;2.934;2023-04-19T12:48:05;18.45;;;11.20;;
18732;SDS011;9495;51.210;2.934;2023-04-19T12:50:34;21.25;;;11.55;;
18732;SDS011;9495;51.210;2.934;2023-04-19T12:53:03;17.67;;;10.52;;
18732;SDS011;9495;51.210;2.934;2023-04-19T12:55:32;16.75;;;10.48;;
18732;SDS011;9495;51.210;2.934;2023-04-19T12:58:02;18.63;;;9.60;;
18732;SDS011;9495;51.210;2.934;2023-04-19T13:00:30;15.02;;;8.73;;
18732;SDS011;9495;51.210;2.934;2023-04-19T13:02:59;15.48;;;8.55;;
18732;SDS011;9495;51.210;2.934;2023-04-19T13:05:28;12.63;;;7.70;;
18732;SDS011;9495;51.210;2.934;2023-04-19T13:07:56;14.18;;;8.05;;
18732;SDS011;9495;51.210;2.934;2023-04-19T13:10:25;12.43;;;8.13;;
18732;SDS011;9495;51.210;2.934;2023-04-19T13:12:54;14.95;;;7.65;;
18732;SDS011;9495;51.210;2.934;2023-04-19T13:15:25;13.10;;;7.15;;
18732;SDS011;9495;51.210;2.934;2023-04-19T13:17:55;11.00;;;6.40;;
18732;SDS011;9495;51.210;2.934;2023-04-19T13:20:23;10.32;;;6.57;;
18732;SDS011;9495;51.210;2.934;2023-04-19T13:22:52;9.52;;;6.32;;
18732;SDS011;9495;51.210;2.934;2023-04-19T13:25:21;9.10;;;5.63;;
18732;SDS011;9495;51.210;2.934;2023-04-19T13:27:49;12.70;;;6.18;;
18732;SDS011;9495;51.210;2.934;2023-04-19T13:30:18;9.85;;;6.25;;
18732;SDS011;9495;51.210;2.934;2023-04-19T13:32:48;10.18;;;6.03;;
18732;SDS011;9495;51.210;2.934;2023-04-19T13:35:16;10.65;;;5.97;;
18732;SDS011;9495;51.210;2.934;2023-04-19T13:37:45;12.27;;;5.88;;
18732;SDS011;9495;51.210;2.934;2023-04-19T13:40:13;10.23;;;5.57;;
18732;SDS011;9495;51.210;2.934;2023-04-19T13:42:45;8.93;;;5.10;;
18732;SDS011;9495;51.210;2.934;2023-04-19T13:45:13;9.07;;;5.90;;
18732;SDS011;9495;51.210;2.934;2023-04-19T13:47:42;12.27;;;5.10;;
18732;SDS011;9495;51.210;2.934;2023-04-19T13:50:12;13.95;;;5.35;;
18732;SDS011;9495;51.210;2.934;2023-04-19T13:52:41;6.63;;;4.50;;
18732;SDS011;9495;51.210;2.934;2023-04-19T13:55:09;7.95;;;4.00;;
18732;SDS011;9495;51.210;2.934;2023-04-19T13:57:38;11.13;;;4.43;;
18732;SDS011;9495;51.210;2.934;2023-04-19T14:00:07;7.10;;;4.50;;
18732;SDS011;9495;51.210;2.934;2023-04-19T14:02:36;7.45;;;3.88;;
18732;SDS011;9495;51.210;2.934;2023-04-19T14:05:06;10.43;;;4.47;;
18732;SDS011;9495;51.210;2.934;2023-04-19T14:07:37;10.52;;;4.57;;
18732;SDS011;9495;51.210;2.934;2023-04-19T14:10:06;6.13;;;4.28;;
18732;SDS011;9495;51.210;2.934;2023-04-19T14:12:36;7.13;;;4.10;;
18732;SDS011;9495;51.210;2.934;2023-04-19T14:15:04;7.07;;;4.38;;
18732;SDS011;9495;51.210;2.934;2023-04-19T14:17:35;10.73;;;4.50;;
18732;SDS011;9495;51.210;2.934;2023-04-19T14:20:04;6.03;;;4.18;;
18732;SDS011;9495;51.210;2.934;2023-04-19T14:22:33;8.15;;;4.15;;
18732;SDS011;9495;51.210;2.934;2023-04-19T14:25:03;9.65;;;4.60;;
18732;SDS011;9495;51.210;2.934;2023-04-19T14:27:32;5.70;;;4.10;;
18732;SDS011;9495;51.210;2.934;2023-04-19T14:30:01;9.23;;;4.35;;
18732;SDS011;9495;51.210;2.934;2023-04-19T14:32:30;9.57;;;5.10;;
18732;SDS011;9495;51.210;2.934;2023-04-19T14:34:59;8.90;;;4.68;;
18732;SDS011;9495;51.210;2.934;2023-04-19T14:37:28;10.27;;;4.20;;
18732;SDS011;9495;51.210;2.934;2023-04-19T14:39:57;6.95;;;4.28;;
18732;SDS011;9495;51.210;2.934;2023-04-19T14:42:26;8.55;;;4.88;;
18732;SDS011;9495;51.210;2.934;2023-04-19T14:44:56;9.52;;;4.65;;
18732;SDS011;9495;51.210;2.934;2023-04-19T14:47:25;8.77;;;4.40;;
18732;SDS011;9495;51.210;2.934;2023-04-19T14:49:53;8.35;;;4.40;;
18732;SDS011;9495;51.210;2.934;2023-04-19T14:52:22;9.48;;;4.47;;
18732;SDS011;9495;51.210;2.934;2023-04-19T14:54:51;5.97;;;4.13;;
18732;SDS011;9495;51.210;2.934;2023-04-19T14:57:19;8.48;;;4.43;;
18732;SDS011;9495;51.210;2.934;2023-04-19T14:59:49;5.78;;;3.60;;
18732;SDS011;9495;51.210;2.934;2023-04-19T15:02:23;5.88;;;3.70;;